createdAt,value
2019-05-20T00:02:23.593Z,10.07
2019-05-20T00:04:46.245Z,13.13
2019-05-20T00:07:18.115Z,9.53
2019-05-20T00:09:49.913Z,10.33
2019-05-20T00:12:21.207Z,10.80
2019-05-20T00:14:52.840Z,9.70
2019-05-20T00:17:24.744Z,15.20
2019-05-20T00:19:56.082Z,9.93
2019-05-20T00:22:27.434Z,9.80
2019-05-20T00:24:59.103Z,10.10
2019-05-20T00:27:30.470Z,10.90
2019-05-20T00:30:02.130Z,11.17
2019-05-20T00:32:41.085Z,11.70
2019-05-20T00:35:07.375Z,11.67
2019-05-20T00:37:38.893Z,11.63
2019-05-20T00:40:11.149Z,12.50
2019-05-20T00:42:42.742Z,10.80
2019-05-20T00:45:15.544Z,10.57
2019-05-20T00:47:47.795Z,14.17
2019-05-20T00:50:19.266Z,10.77
2019-05-20T00:52:50.806Z,12.40
2019-05-20T00:55:29.349Z,10.57
2019-05-20T00:58:01.324Z,12.13
2019-05-20T01:00:33.149Z,13.03
2019-05-20T01:03:04.810Z,12.17
2019-05-20T01:05:36.983Z,10.63
2019-05-20T01:08:09.172Z,11.17
2019-05-20T01:10:40.545Z,11.23
2019-05-20T01:13:11.892Z,14.37
2019-05-20T01:15:44.212Z,10.90
2019-05-20T01:18:16.066Z,10.70
2019-05-20T01:20:47.570Z,11.67
2019-05-20T01:23:18.863Z,12.70
2019-05-20T01:25:50.183Z,11.53
2019-05-20T01:28:21.485Z,11.67
2019-05-20T01:30:52.919Z,14.07
2019-05-20T01:33:24.389Z,11.87
2019-05-20T01:35:55.745Z,12.80
2019-05-20T01:38:27.207Z,14.37
2019-05-20T01:40:58.828Z,11.57
2019-05-20T01:43:30.730Z,11.83
2019-05-20T01:46:02.137Z,12.30
2019-05-20T01:48:33.656Z,12.23
2019-05-20T01:51:05.989Z,15.60
2019-05-20T01:53:37.446Z,11.83
2019-05-20T01:56:11.052Z,12.63
2019-05-20T01:58:42.699Z,13.30
2019-05-20T02:01:14.583Z,14.30
2019-05-20T02:03:46.427Z,12.33
2019-05-20T02:06:18.338Z,12.80
2019-05-20T02:08:49.941Z,13.07
2019-05-20T02:11:21.227Z,13.07
2019-05-20T02:14:14.786Z,12.63
2019-05-20T02:16:46.153Z,13.13
2019-05-20T02:19:17.866Z,13.20
2019-05-20T02:21:49.318Z,12.40
2019-05-20T02:24:20.539Z,13.47
2019-05-20T02:26:52.633Z,13.20
2019-05-20T02:29:24.864Z,13.53
2019-05-20T02:31:56.768Z,15.60
2019-05-20T02:34:28.402Z,16.17
2019-05-20T02:37:01.631Z,13.30
2019-05-20T02:39:33.912Z,13.50
2019-05-20T02:42:05.626Z,14.63
2019-05-20T02:44:37.640Z,15.47
2019-05-20T02:47:09.889Z,13.37
2019-05-20T02:49:41.331Z,14.83
2019-05-20T02:52:16.076Z,19.57
2019-05-20T02:54:47.677Z,13.43
2019-05-20T02:57:20.018Z,13.80
2019-05-20T02:59:51.773Z,13.40
2019-05-20T03:02:23.738Z,13.30
2019-05-20T03:04:55.692Z,12.93
2019-05-20T03:07:27.752Z,13.87
2019-05-20T03:09:59.452Z,12.50
2019-05-20T03:12:31.045Z,13.60
2019-05-20T03:15:02.324Z,13.30
2019-05-20T03:17:34.200Z,12.83
2019-05-20T03:20:06.238Z,15.13
2019-05-20T03:22:37.832Z,16.17
2019-05-20T03:25:09.948Z,13.27
2019-05-20T03:27:41.779Z,11.00
2019-05-20T03:30:14.785Z,9.93
2019-05-20T03:32:46.224Z,11.87
2019-05-20T03:35:17.985Z,9.07
2019-05-20T03:37:49.784Z,8.93
2019-05-20T03:40:23.895Z,8.87
2019-05-20T03:42:55.659Z,10.53
2019-05-20T03:45:27.092Z,10.87
2019-05-20T03:47:58.781Z,8.03
2019-05-20T03:50:30.392Z,7.83
2019-05-20T03:53:02.184Z,7.60
2019-05-20T03:55:34.125Z,7.73
2019-05-20T03:58:07.174Z,7.27
2019-05-20T04:00:49.878Z,7.30
2019-05-20T04:03:21.763Z,8.53
2019-05-20T04:05:53.614Z,8.40
2019-05-20T04:08:25.319Z,7.50
2019-05-20T04:10:56.821Z,9.60
2019-05-20T04:13:28.542Z,7.47
2019-05-20T04:16:00.290Z,7.47
2019-05-20T04:18:33.125Z,7.83
2019-05-20T04:21:05.029Z,7.47
2019-05-20T04:23:36.972Z,8.97
2019-05-20T04:26:08.919Z,10.57
2019-05-20T04:28:40.564Z,6.77
2019-05-20T04:31:12.335Z,6.43
2019-05-20T04:33:43.828Z,8.00
2019-05-20T04:36:15.200Z,7.45
2019-05-20T04:38:47.447Z,7.35
2019-05-20T04:41:19.287Z,7.05
2019-05-20T04:43:51.724Z,9.65
2019-05-20T04:46:23.153Z,7.50
2019-05-20T04:48:54.473Z,5.92
2019-05-20T04:51:26.122Z,9.88
2019-05-20T04:53:57.746Z,8.83
2019-05-20T04:56:29.622Z,6.55
2019-05-20T04:59:02.054Z,6.45
2019-05-20T05:01:33.612Z,7.22
2019-05-20T05:04:05.992Z,8.00
2019-05-20T05:06:37.353Z,6.50
2019-05-20T05:09:08.998Z,8.78
2019-05-20T05:11:40.377Z,6.53
2019-05-20T05:14:11.781Z,7.37
2019-05-20T05:16:43.428Z,11.00
2019-05-20T05:19:15.079Z,7.17
2019-05-20T05:21:46.632Z,7.20
2019-05-20T05:24:18.163Z,7.45
2019-05-20T05:26:50.487Z,16.75
2019-05-20T05:29:22.454Z,9.80
2019-05-20T05:31:54.421Z,7.83
2019-05-20T05:34:25.815Z,9.00
2019-05-20T05:36:57.185Z,10.77
2019-05-20T05:39:28.576Z,10.17
2019-05-20T05:41:59.916Z,10.90
2019-05-20T05:44:31.233Z,7.63
2019-05-20T05:47:03.709Z,8.93
2019-05-20T05:49:35.055Z,8.10
2019-05-20T05:52:06.319Z,9.37
2019-05-20T05:54:37.652Z,16.40
2019-05-20T05:57:08.928Z,9.03
2019-05-20T05:59:41.191Z,7.50
2019-05-20T06:02:12.538Z,10.77
2019-05-20T06:04:43.877Z,10.00
2019-05-20T06:07:15.346Z,9.70
2019-05-20T06:09:46.776Z,10.97
2019-05-20T06:12:18.231Z,9.90
2019-05-20T06:14:49.615Z,10.03
2019-05-20T06:17:21.075Z,10.43
2019-05-20T06:19:52.356Z,6.23
2019-05-20T06:22:23.931Z,10.57
2019-05-20T06:24:55.852Z,8.70
2019-05-20T06:27:28.247Z,11.17
2019-05-20T06:29:59.706Z,10.67
2019-05-20T06:32:31.735Z,9.17
2019-05-20T06:35:03.187Z,10.83
2019-05-20T06:37:37.245Z,8.10
2019-05-20T06:40:17.502Z,10.83
2019-05-20T06:49:12.204Z,6.17
2019-05-20T06:51:44.016Z,8.43
2019-05-20T06:54:15.894Z,12.73
2019-05-20T06:56:47.615Z,14.33
2019-05-20T06:59:19.948Z,7.10
2019-05-20T07:01:52.199Z,10.43
2019-05-20T07:04:24.296Z,6.90
2019-05-20T07:06:56.672Z,11.10
2019-05-20T07:09:29.195Z,9.33
2019-05-20T07:12:01.114Z,7.33
2019-05-20T07:14:33.065Z,7.33
2019-05-20T07:17:04.967Z,10.83
2019-05-20T07:19:37.263Z,11.50
2019-05-20T07:22:09.605Z,13.43
2019-05-20T07:24:41.599Z,6.40
2019-05-20T07:27:13.684Z,8.20
2019-05-20T07:29:45.579Z,10.40
2019-05-20T07:32:18.871Z,8.93
2019-05-20T07:34:50.844Z,6.93
2019-05-20T07:37:23.136Z,6.00
2019-05-20T07:39:55.399Z,9.07
2019-05-20T07:42:27.277Z,8.20
2019-05-20T07:45:00.275Z,8.70
2019-05-20T07:47:32.668Z,7.93
2019-05-20T07:50:05.099Z,8.90
2019-05-20T07:52:37.641Z,12.67
2019-05-20T07:55:10.207Z,7.57
2019-05-20T07:57:44.506Z,9.20
2019-05-20T08:00:17.550Z,8.40
2019-05-20T08:02:49.537Z,9.50
2019-05-20T08:05:21.374Z,6.67
2019-05-20T08:07:53.761Z,7.67
2019-05-20T08:10:26.177Z,11.70
2019-05-20T08:12:58.078Z,10.07
2019-05-20T08:15:28.794Z,6.70
2019-05-20T08:17:59.903Z,6.57
2019-05-20T08:20:32.099Z,8.43
2019-05-20T08:23:04.222Z,12.73
2019-05-20T08:25:36.151Z,8.07
2019-05-20T08:28:08.079Z,6.20
2019-05-20T08:30:40.672Z,9.27
2019-05-20T08:33:12.499Z,7.87
2019-05-20T08:35:44.467Z,10.07
2019-05-20T08:38:17.471Z,7.77
2019-05-20T08:40:49.379Z,10.97
2019-05-20T08:43:21.196Z,10.63
2019-05-20T08:45:53.058Z,7.10
2019-05-20T08:48:25.065Z,10.67
2019-05-20T08:50:57.245Z,6.00
2019-05-20T08:53:29.523Z,10.77
2019-05-20T08:56:01.308Z,6.57
2019-05-20T08:58:34.377Z,10.83
2019-05-20T09:01:07.293Z,8.70
2019-05-20T09:03:40.297Z,5.87
2019-05-20T09:06:12.227Z,11.67
2019-05-20T09:08:44.270Z,10.10
2019-05-20T09:11:16.246Z,8.30
2019-05-20T09:13:48.363Z,9.23
2019-05-20T09:16:20.909Z,7.80
2019-05-20T09:18:52.860Z,7.77
2019-05-20T09:21:24.732Z,9.30
2019-05-20T09:23:56.653Z,8.03
2019-05-20T09:26:28.412Z,10.63
2019-05-20T09:29:01.225Z,6.37
2019-05-20T09:31:33.176Z,5.80
2019-05-20T09:34:05.055Z,10.47
2019-05-20T09:36:37.630Z,5.30
2019-05-20T09:39:09.508Z,7.97
2019-05-20T09:41:41.320Z,8.37
2019-05-20T09:44:13.534Z,6.93
2019-05-20T09:46:46.014Z,6.50
2019-05-20T09:49:17.871Z,6.13
2019-05-20T09:51:50.124Z,7.17
2019-05-20T09:54:22.815Z,8.57
2019-05-20T09:56:54.787Z,5.97
2019-05-20T09:59:40.434Z,10.47
2019-05-20T10:02:00.614Z,11.00
2019-05-20T10:04:32.612Z,9.67
2019-05-20T10:07:04.794Z,11.87
2019-05-20T10:09:36.597Z,7.93
2019-05-20T10:12:08.504Z,6.90
2019-05-20T10:14:40.357Z,8.57
2019-05-20T10:17:12.800Z,9.23
2019-05-20T10:19:44.771Z,6.67
2019-05-20T10:22:16.580Z,8.00
2019-05-20T10:24:48.399Z,8.33
2019-05-20T10:27:20.197Z,11.50
2019-05-20T10:29:52.180Z,8.57
2019-05-20T10:32:24.909Z,11.03
2019-05-20T10:34:56.805Z,9.20
2019-05-20T10:37:28.624Z,12.67
2019-05-20T10:40:00.610Z,8.77
2019-05-20T10:42:32.214Z,8.67
2019-05-20T10:45:04.412Z,8.53
2019-05-20T10:47:36.541Z,9.30
2019-05-20T10:50:09.012Z,8.77
2019-05-20T10:52:40.558Z,10.90
2019-05-20T10:55:13.499Z,10.83
2019-05-20T10:57:45.622Z,8.23
2019-05-20T11:00:18.030Z,8.33
2019-05-20T11:02:50.004Z,8.10
2019-05-20T11:05:22.316Z,9.83
2019-05-20T11:07:54.649Z,7.00
2019-05-20T11:10:26.920Z,7.10
2019-05-20T11:12:59.249Z,8.33
2019-05-20T11:15:31.291Z,8.83
2019-05-20T11:18:03.477Z,8.33
2019-05-20T11:20:35.990Z,10.37
2019-05-20T11:23:08.052Z,13.00
2019-05-20T11:25:39.906Z,6.97
2019-05-20T11:28:12.190Z,8.03
2019-05-20T11:30:44.180Z,7.60
2019-05-20T11:33:16.209Z,10.73
2019-05-20T11:35:48.166Z,12.77
2019-05-20T11:38:19.905Z,11.80
2019-05-20T11:40:51.714Z,16.03
2019-05-20T11:43:23.810Z,14.33
2019-05-20T11:45:55.613Z,11.90
2019-05-20T11:48:27.352Z,9.23
2019-05-20T11:51:00.276Z,10.77
2019-05-20T11:53:32.019Z,9.87
2019-05-20T11:56:04.049Z,11.10
2019-05-20T11:58:35.853Z,10.70
2019-05-20T12:01:08.065Z,16.13
2019-05-20T12:03:40.361Z,14.03
2019-05-20T12:06:12.345Z,12.73
2019-05-20T12:08:44.288Z,15.20
2019-05-20T12:11:16.201Z,23.33
2019-05-20T12:13:48.090Z,14.03
2019-05-20T12:16:20.154Z,12.43
2019-05-20T12:18:52.052Z,13.73
2019-05-20T12:21:25.215Z,12.10
2019-05-20T12:23:57.069Z,13.20
2019-05-20T12:26:29.163Z,14.10
2019-05-20T12:29:01.277Z,14.40
2019-05-20T12:31:33.283Z,16.20
2019-05-20T12:34:05.181Z,20.83
2019-05-20T12:36:37.286Z,14.47
2019-05-20T12:39:09.506Z,14.30
2019-05-20T12:41:41.387Z,13.27
2019-05-20T12:44:13.398Z,19.43
2019-05-20T12:46:45.950Z,15.07
2019-05-20T12:49:18.853Z,18.83
2019-05-20T12:51:51.102Z,13.53
2019-05-20T12:54:23.295Z,14.77
2019-05-20T12:56:56.279Z,18.20
2019-05-20T12:59:28.439Z,16.70
2019-05-20T13:02:00.338Z,15.13
2019-05-20T13:04:32.253Z,13.93
2019-05-20T13:07:04.194Z,14.77
2019-05-20T13:09:36.057Z,13.67
2019-05-20T13:12:07.919Z,13.37
2019-05-20T13:14:39.717Z,14.10
2019-05-20T13:17:11.743Z,14.83
2019-05-20T13:19:44.600Z,16.53
2019-05-20T13:22:16.587Z,12.43
2019-05-20T13:24:49.078Z,12.73
2019-05-20T13:27:21.043Z,14.43
2019-05-20T13:29:52.872Z,12.50
2019-05-20T13:32:24.667Z,14.33
2019-05-20T13:34:56.537Z,13.17
2019-05-20T13:37:28.549Z,14.50
2019-05-20T13:40:03.131Z,16.23
2019-05-20T13:42:34.461Z,13.83
2019-05-20T13:45:07.847Z,14.50
2019-05-20T13:47:39.809Z,12.47
2019-05-20T13:50:11.990Z,12.60
2019-05-20T13:52:44.031Z,13.90
2019-05-20T13:55:16.002Z,10.73
2019-05-20T13:57:48.005Z,10.20
2019-05-20T14:00:21.307Z,13.27
2019-05-20T14:02:53.463Z,11.53
2019-05-20T14:05:25.415Z,13.53
2019-05-20T14:07:58.486Z,13.97
2019-05-20T14:10:30.459Z,15.80
2019-05-20T14:13:02.737Z,11.00
2019-05-20T14:15:34.660Z,12.13
2019-05-20T14:18:06.835Z,12.50
2019-05-20T14:20:38.881Z,11.63
2019-05-20T14:23:11.022Z,14.00
2019-05-20T14:25:42.953Z,9.87
2019-05-20T14:28:14.812Z,11.50
2019-05-20T14:30:46.979Z,9.47
2019-05-20T14:33:19.155Z,10.07
2019-05-20T14:35:50.958Z,14.90
2019-05-20T14:38:23.184Z,10.63
2019-05-20T14:40:55.453Z,7.77
2019-05-20T14:43:27.665Z,8.20
2019-05-20T14:45:59.786Z,7.07
2019-05-20T14:48:31.973Z,7.47
2019-05-20T14:51:03.885Z,11.13
2019-05-20T14:53:35.954Z,11.40
2019-05-20T14:56:07.994Z,8.00
2019-05-20T14:58:40.727Z,6.97
2019-05-20T15:01:12.769Z,10.50
2019-05-20T15:03:44.970Z,8.00
2019-05-20T15:06:17.991Z,7.70
2019-05-20T15:08:49.866Z,11.20
2019-05-20T15:11:35.632Z,7.93
2019-05-20T15:13:55.264Z,7.70
2019-05-20T15:16:27.139Z,7.40
2019-05-20T15:18:59.034Z,8.13
2019-05-20T15:21:31.075Z,7.03
2019-05-20T15:24:04.111Z,8.30
2019-05-20T15:26:36.145Z,9.60
2019-05-20T15:29:07.960Z,9.67
2019-05-20T15:31:40.015Z,9.80
2019-05-20T15:34:11.869Z,9.37
2019-05-20T15:36:43.910Z,8.10
2019-05-20T15:39:15.866Z,7.67
2019-05-20T15:41:47.874Z,8.23
2019-05-20T15:44:19.657Z,10.17
2019-05-20T15:46:51.569Z,6.67
2019-05-20T15:49:24.465Z,8.43
2019-05-20T15:51:56.384Z,8.37
2019-05-20T15:54:28.246Z,9.03
2019-05-20T15:57:00.427Z,7.50
2019-05-20T15:59:45.480Z,11.60
2019-05-20T16:02:05.944Z,8.90
2019-05-20T16:04:37.872Z,10.77
2019-05-20T16:07:10.765Z,8.23
2019-05-20T16:09:42.758Z,8.67
2019-05-20T16:12:14.709Z,10.20
2019-05-20T16:14:46.631Z,10.37
2019-05-20T16:17:18.711Z,10.37
2019-05-20T16:19:50.586Z,8.10
2019-05-20T16:22:22.579Z,9.23
2019-05-20T16:24:54.380Z,8.13
2019-05-20T16:27:26.295Z,10.73
2019-05-20T16:30:06.021Z,12.50
2019-05-20T16:32:31.603Z,13.07
2019-05-20T16:35:03.875Z,11.27
2019-05-20T16:37:35.830Z,10.63
2019-05-20T16:40:08.902Z,11.90
2019-05-20T16:42:41.472Z,12.73
2019-05-20T16:45:14.462Z,9.50
2019-05-20T16:47:46.335Z,9.67
2019-05-20T16:50:19.015Z,9.57
2019-05-20T16:52:50.875Z,10.83
2019-05-20T16:55:23.074Z,12.63
2019-05-20T16:57:55.022Z,14.70
2019-05-20T17:00:32.221Z,15.07
2019-05-20T17:03:00.295Z,13.80
2019-05-20T17:05:32.406Z,11.23
2019-05-20T17:08:04.366Z,10.67
2019-05-20T17:10:36.300Z,13.00
2019-05-20T17:13:08.187Z,12.70
2019-05-20T17:15:40.172Z,14.97
2019-05-20T17:18:12.051Z,15.23
2019-05-20T17:20:46.158Z,13.67
2019-05-20T17:23:17.798Z,14.37
2019-05-20T17:25:50.779Z,15.17
2019-05-20T17:28:23.499Z,14.47
2019-05-20T17:30:55.318Z,16.17
2019-05-20T17:33:27.182Z,15.87
2019-05-20T17:35:59.426Z,15.03
2019-05-20T17:38:31.538Z,13.87
2019-05-20T17:41:03.410Z,15.13
2019-05-20T17:43:35.355Z,15.63
2019-05-20T17:46:07.512Z,14.80
2019-05-20T17:48:39.293Z,15.40
2019-05-20T17:51:11.475Z,17.20
2019-05-20T17:53:43.246Z,15.50
2019-05-20T17:56:15.300Z,21.63
2019-05-20T17:58:47.366Z,16.00
2019-05-20T18:01:19.264Z,15.90
2019-05-20T18:03:51.020Z,15.90
2019-05-20T18:06:23.050Z,15.23
2019-05-20T18:08:56.250Z,20.80
2019-05-20T18:11:28.590Z,14.13
2019-05-20T18:14:00.830Z,17.03
2019-05-20T18:16:32.870Z,16.13
2019-05-20T18:19:04.918Z,17.23
2019-05-20T18:21:36.611Z,15.70
2019-05-20T18:24:08.421Z,16.30
2019-05-20T18:26:40.207Z,16.27
2019-05-20T18:29:11.891Z,17.07
2019-05-20T18:31:44.260Z,14.60
2019-05-20T18:34:16.390Z,16.47
2019-05-20T18:36:48.089Z,20.20
2019-05-20T18:39:20.267Z,17.30
2019-05-20T18:41:52.368Z,18.90
2019-05-20T18:44:24.139Z,15.70
2019-05-20T18:46:56.063Z,16.40
2019-05-20T18:49:27.800Z,16.73
2019-05-20T18:51:59.461Z,17.60
2019-05-20T18:54:31.340Z,23.60
2019-05-20T18:57:03.222Z,18.03
2019-05-20T18:59:35.276Z,21.00
2019-05-20T19:02:07.184Z,18.90
2019-05-20T19:04:39.152Z,18.93
2019-05-20T19:07:11.018Z,19.73
2019-05-20T19:09:42.791Z,20.90
2019-05-20T19:12:14.778Z,21.10
2019-05-20T19:14:46.526Z,20.83
2019-05-20T19:17:18.498Z,21.37
2019-05-20T19:19:50.654Z,22.07
2019-05-20T19:22:22.578Z,20.37
2019-05-20T19:24:54.518Z,22.40
2019-05-20T19:27:26.969Z,21.30
2019-05-20T19:29:59.053Z,22.60
2019-05-20T19:32:32.298Z,21.50
2019-05-20T19:35:04.158Z,21.20
2019-05-20T19:37:36.388Z,21.23
2019-05-20T19:40:08.987Z,22.43
2019-05-20T19:42:42.898Z,22.27
2019-05-20T19:45:16.400Z,22.07
2019-05-20T19:47:48.330Z,22.13
2019-05-20T19:50:20.219Z,24.20
2019-05-20T19:52:52.231Z,24.23
2019-05-20T19:55:24.097Z,24.53
2019-05-20T19:57:55.975Z,30.43
2019-05-20T20:00:27.789Z,24.47
2019-05-20T20:02:59.562Z,23.97
2019-05-20T20:05:31.502Z,23.27
2019-05-20T20:08:03.602Z,22.83
2019-05-20T20:10:35.967Z,22.97
2019-05-20T20:13:07.891Z,23.43
2019-05-20T20:15:39.731Z,22.03
2019-05-20T20:18:12.137Z,23.47
2019-05-20T20:20:44.024Z,24.37
2019-05-20T20:23:16.036Z,22.87
2019-05-20T20:25:47.836Z,22.57
2019-05-20T20:28:20.143Z,23.23
2019-05-20T20:30:52.089Z,22.40
2019-05-20T20:33:24.053Z,23.67
2019-05-20T20:35:55.759Z,23.47
2019-05-20T20:38:27.578Z,23.33
2019-05-20T20:40:59.594Z,23.27
2019-05-20T20:43:32.237Z,23.83
2019-05-20T20:46:04.641Z,23.50
2019-05-20T20:48:36.653Z,23.63
2019-05-20T20:51:09.737Z,24.03
2019-05-20T20:53:41.569Z,24.77
2019-05-20T20:56:24.887Z,23.20
2019-05-20T20:58:47.409Z,25.87
2019-05-20T21:01:19.550Z,25.03
2019-05-20T21:03:51.421Z,26.00
2019-05-20T21:06:23.651Z,24.40
2019-05-20T21:08:55.511Z,25.43
2019-05-20T21:11:27.998Z,25.77
2019-05-20T21:13:59.737Z,25.03
2019-05-20T21:16:31.534Z,23.40
2019-05-20T21:19:03.351Z,24.00
2019-05-20T21:21:35.330Z,25.47
2019-05-20T21:24:07.300Z,26.07
2019-05-20T21:26:39.084Z,26.00
2019-05-20T21:29:10.973Z,24.43
2019-05-20T21:31:42.767Z,25.67
2019-05-20T21:34:14.563Z,25.10
2019-05-20T21:36:48.061Z,24.80
2019-05-20T21:39:20.013Z,24.43
2019-05-20T21:41:52.004Z,24.93
2019-05-20T21:44:23.875Z,25.50
2019-05-20T21:46:55.620Z,25.83
2019-05-20T21:49:27.311Z,25.10
2019-05-20T21:51:59.084Z,26.13
2019-05-20T21:54:30.897Z,25.67
2019-05-20T21:57:02.564Z,25.67
2019-05-20T21:59:34.586Z,25.20
2019-05-20T22:02:06.675Z,25.27
2019-05-20T22:04:38.915Z,25.43
2019-05-20T22:07:12.043Z,24.07
2019-05-20T22:09:44.938Z,22.93
2019-05-20T22:12:17.009Z,23.67
2019-05-20T22:14:49.069Z,25.10
2019-05-20T22:17:21.215Z,22.83
2019-05-20T22:19:54.238Z,25.23
2019-05-20T22:22:35.857Z,24.03
2019-05-20T22:25:08.223Z,24.33
2019-05-20T22:27:40.271Z,24.07
2019-05-20T22:30:12.934Z,23.20
2019-05-20T22:32:44.950Z,25.20
2019-05-20T22:35:17.001Z,22.07
2019-05-20T22:37:49.036Z,23.90
2019-05-20T22:40:21.009Z,22.80
2019-05-20T22:42:52.925Z,20.93
2019-05-20T22:45:24.944Z,21.77
2019-05-20T22:47:57.041Z,21.27
2019-05-20T22:50:29.007Z,20.90
2019-05-20T22:53:00.779Z,20.53
2019-05-20T22:55:32.598Z,21.00
2019-05-20T22:58:04.281Z,19.20
2019-05-20T23:00:36.335Z,18.27
2019-05-20T23:03:08.142Z,19.07
2019-05-20T23:05:40.394Z,19.60
2019-05-20T23:08:12.163Z,17.50
2019-05-20T23:10:44.300Z,17.93
2019-05-20T23:13:16.112Z,18.90
2019-05-20T23:15:47.999Z,16.63
2019-05-20T23:18:19.914Z,16.80
2019-05-20T23:20:51.505Z,16.03
2019-05-20T23:23:23.252Z,16.40
2019-05-20T23:25:55.169Z,16.03
2019-05-20T23:28:27.099Z,15.07
2019-05-20T23:30:58.884Z,15.37
2019-05-20T23:33:30.609Z,14.80
2019-05-20T23:36:02.530Z,15.23
2019-05-20T23:38:34.350Z,15.50
2019-05-20T23:41:06.278Z,14.80
2019-05-20T23:43:38.013Z,17.00
2019-05-20T23:46:09.863Z,14.10
2019-05-20T23:48:41.500Z,15.07
2019-05-20T23:51:13.301Z,14.93
2019-05-20T23:53:45.050Z,15.03
2019-05-20T23:56:16.805Z,15.70
2019-05-20T23:58:48.691Z,20.40
